• LFSB

    METAR de LFSB (émis le 2019/07/19 05:30 UTC):
    LFSB 190530Z 11003KT 080V170 CAVOK 21/13 Q1016 NOSIG

    TAF de LFSB (émis le 2019/07/19 06:21 UTC):
    LFSB 190500Z 1906/2006 27005KT CAVOK BECMG 1920/1924 VRB03KT
  • LFSX

    METAR de LFSX (émis le 2019/07/19 05:30 UTC):
    LFSX 190530Z AUTO 09004KT CAVOK 16/14 Q1017

    TAF de LFSX (émis le 2019/07/19 03:15 UTC):
    LFSX 190200Z 1903/2003 26005KT CAVOK
  • LFSD

    METAR de LFSD (émis le 2019/07/19 05:30 UTC):
    LFSD 190530Z AUTO 12004KT CAVOK 16/12 Q1017

    TAF de LFSD (émis le 2015/06/01 00:11 UTC):
    LFSD 010600Z 0100/0124 CNL
  • LFGJ

    METAR de LFGJ (émis le 2019/07/19 05:30 UTC):
    LFGJ 190530Z AUTO 14002KT CAVOK 16/13 Q1017 NOSIG

    TAF COURT de LFGJ
    (émis le 2019/07/19 06:21 UTC):
    TAF TAF LFGJ 190500Z 1906/1915 21005KT CAVOK
  • LFJL

    METAR de LFJL (émis le 2019/07/19 05:30 UTC):
    LFJL 190530Z AUTO VRB03KT 9999 FEW034 SCT068 BKN078 18/14 Q1016 TEMPO BKN013

    TAF de LFJL (émis le 2019/07/19 06:21 UTC):
    LFJL 190500Z 1906/2006 28005KT 9999 FEW015 BKN030 PROB30 TEMPO 1906/1909 -RA BKN013 BECMG 1912/1915 CAVOK BECMG 1919/1921 VRB03KT TEMPO 1923/2006 12006KT
  • LFST

    METAR de LFST (émis le 2019/07/19 05:30 UTC):
    LFST 190530Z AUTO 18004KT 130V210 CAVOK 19/14 Q1015 NOSIG

    TAF de LFST (émis le 2019/07/19 06:21 UTC):
    LFST 190500Z 1906/2006 20004KT CAVOK